createdAt,value
2023-04-17T00:02:04.061Z,10.03
2023-04-17T00:04:32.342Z,10.07
2023-04-17T00:07:03.308Z,10.09
2023-04-17T00:09:30.988Z,10.06
2023-04-17T00:11:58.429Z,9.99
2023-04-17T00:14:25.716Z,10.04
2023-04-17T00:16:53.057Z,10.00
2023-04-17T00:19:20.690Z,10.02
2023-04-17T00:21:47.831Z,9.97
2023-04-17T00:24:14.982Z,9.97
2023-04-17T00:26:42.440Z,9.89
2023-04-17T00:29:10.196Z,9.89
2023-04-17T00:31:37.673Z,9.91
2023-04-17T00:34:05.234Z,9.87
2023-04-17T00:36:32.409Z,9.82
2023-04-17T00:38:59.557Z,9.76
2023-04-17T00:41:27.170Z,9.76
2023-04-17T00:43:54.432Z,9.80
2023-04-17T00:46:22.116Z,9.77
2023-04-17T00:48:49.709Z,9.76
2023-04-17T00:51:16.990Z,9.69
2023-04-17T00:53:44.249Z,9.65
2023-04-17T00:56:11.937Z,9.63
2023-04-17T00:58:39.226Z,9.55
2023-04-17T01:01:06.579Z,9.58
2023-04-17T01:03:35.597Z,9.61
2023-04-17T01:06:03.773Z,9.63
2023-04-17T01:08:32.658Z,9.59
2023-04-17T01:11:00.669Z,9.61
2023-04-17T01:13:27.937Z,9.69
2023-04-17T01:15:55.287Z,9.70
2023-04-17T01:18:22.947Z,9.71
2023-04-17T01:20:50.187Z,9.67
2023-04-17T01:23:17.601Z,9.67
2023-04-17T01:25:46.282Z,9.74
2023-04-17T01:28:13.942Z,9.74
2023-04-17T01:30:41.249Z,9.76
2023-04-17T01:33:09.122Z,9.66
2023-04-17T01:35:36.754Z,9.59
2023-04-17T01:38:04.034Z,9.59
2023-04-17T01:40:31.782Z,9.60
2023-04-17T01:42:59.030Z,9.56
2023-04-17T01:45:26.319Z,9.60
2023-04-17T01:47:55.104Z,9.74
2023-04-17T01:50:22.467Z,9.53
2023-04-17T01:52:49.703Z,9.63
2023-04-17T01:55:17.284Z,9.62
2023-04-17T01:57:44.527Z,9.58
2023-04-17T02:00:12.010Z,9.44
2023-04-17T02:02:39.683Z,9.41
2023-04-17T02:05:07.563Z,9.55
2023-04-17T02:07:34.804Z,9.66
2023-04-17T02:10:02.088Z,9.63
2023-04-17T02:12:29.634Z,9.57
2023-04-17T02:15:01.210Z,9.59
2023-04-17T02:17:28.728Z,9.62
2023-04-17T02:19:56.614Z,9.64
2023-04-17T02:22:23.992Z,9.63
2023-04-17T02:24:51.876Z,9.65
2023-04-17T02:27:19.994Z,9.63
2023-04-17T02:29:47.248Z,9.69
2023-04-17T02:32:15.386Z,9.73
2023-04-17T02:34:43.209Z,9.64
2023-04-17T02:37:11.160Z,9.71
2023-04-17T02:39:38.685Z,9.74
2023-04-17T02:42:06.305Z,9.82
2023-04-17T02:44:33.533Z,9.86
2023-04-17T02:47:01.273Z,9.90
2023-04-17T02:49:30.386Z,9.84
2023-04-17T02:51:58.079Z,9.75
2023-04-17T02:54:25.322Z,9.66
2023-04-17T02:56:53.430Z,9.66
2023-04-17T02:59:20.829Z,9.74
2023-04-17T03:01:48.229Z,9.81
2023-04-17T03:04:16.298Z,9.76
2023-04-17T03:06:43.587Z,9.67
2023-04-17T03:09:12.376Z,9.77
2023-04-17T03:11:40.131Z,9.82
2023-04-17T03:14:07.461Z,9.82
2023-04-17T03:16:34.825Z,9.81
2023-04-17T03:19:03.366Z,9.68
2023-04-17T03:21:31.493Z,9.67
2023-04-17T03:23:59.169Z,9.70
2023-04-17T03:26:26.894Z,9.68
2023-04-17T03:28:54.781Z,9.79
2023-04-17T03:31:24.553Z,9.93
2023-04-17T03:33:52.271Z,9.92
2023-04-17T03:36:19.813Z,10.08
2023-04-17T03:38:47.582Z,10.29
2023-04-17T03:41:16.460Z,10.35
2023-04-17T03:43:44.620Z,10.23
2023-04-17T03:46:12.364Z,10.25
2023-04-17T03:48:39.973Z,10.11
2023-04-17T03:51:07.406Z,10.08
2023-04-17T03:53:34.927Z,10.05
2023-04-17T03:56:02.895Z,10.13
2023-04-17T03:58:30.673Z,10.07
2023-04-17T04:01:01.962Z,10.02
2023-04-17T04:03:30.195Z,10.06
2023-04-17T04:05:58.364Z,9.95
2023-04-17T04:08:25.623Z,9.89
2023-04-17T04:10:54.337Z,9.88
2023-04-17T04:13:21.865Z,9.89
2023-04-17T04:15:50.029Z,9.90
2023-04-17T04:18:18.426Z,9.84
2023-04-17T04:20:45.658Z,9.86
2023-04-17T04:23:13.254Z,9.86
2023-04-17T04:25:41.779Z,9.88
2023-04-17T04:28:10.741Z,9.91
2023-04-17T04:30:38.793Z,9.87
2023-04-17T04:33:08.362Z,9.84
2023-04-17T04:35:36.878Z,9.87
2023-04-17T04:38:06.132Z,9.99
2023-04-17T04:40:38.228Z,10.03
2023-04-17T04:43:06.847Z,10.01
2023-04-17T04:45:35.344Z,10.10
2023-04-17T04:48:03.466Z,10.19
2023-04-17T04:50:31.087Z,10.24
2023-04-17T04:52:58.921Z,10.27
2023-04-17T04:55:27.840Z,10.33
2023-04-17T04:57:55.947Z,10.24
2023-04-17T05:00:23.899Z,10.28
2023-04-17T05:02:51.772Z,10.23
2023-04-17T05:05:20.252Z,10.16
2023-04-17T05:07:47.836Z,10.17
2023-04-17T05:10:15.241Z,10.13
2023-04-17T05:12:45.027Z,10.12
2023-04-17T05:15:13.030Z,10.22
2023-04-17T05:17:41.755Z,10.30
2023-04-17T05:20:09.774Z,10.32
2023-04-17T05:22:39.598Z,10.42
2023-04-17T05:25:08.058Z,10.50
2023-04-17T05:27:35.394Z,10.56
2023-04-17T05:30:03.091Z,10.60
2023-04-17T05:32:31.392Z,10.56
2023-04-17T05:34:58.880Z,10.67
2023-04-17T05:37:26.529Z,10.63
2023-04-17T05:39:55.445Z,10.60
2023-04-17T05:42:22.620Z,10.55
2023-04-17T05:44:50.328Z,10.47
2023-04-17T05:47:19.308Z,10.46
2023-04-17T05:49:46.531Z,10.45
2023-04-17T05:52:14.037Z,10.49
2023-04-17T05:54:42.036Z,10.54
2023-04-17T05:57:09.246Z,10.68
2023-04-17T05:59:37.418Z,10.79
2023-04-17T06:02:05.610Z,10.93
2023-04-17T06:04:34.130Z,11.18
2023-04-17T06:07:06.213Z,11.27
2023-04-17T06:09:34.284Z,11.31
2023-04-17T06:12:01.530Z,11.49
2023-04-17T06:14:28.760Z,11.68
2023-04-17T06:16:56.552Z,11.86
2023-04-17T06:19:24.308Z,12.15
2023-04-17T06:21:51.621Z,12.30
2023-04-17T06:24:19.916Z,12.60
2023-04-17T06:26:47.218Z,12.80
2023-04-17T06:29:15.859Z,12.93
2023-04-17T06:31:43.886Z,13.01
2023-04-17T06:34:11.737Z,13.10
2023-04-17T06:36:39.645Z,13.01
2023-04-17T06:39:07.785Z,12.91
2023-04-17T06:41:35.322Z,12.80
2023-04-17T06:44:02.493Z,12.85
2023-04-17T06:46:40.239Z,12.92
2023-04-17T06:49:07.480Z,12.98
2023-04-17T06:51:35.782Z,13.00
2023-04-17T06:54:03.309Z,13.08
2023-04-17T06:56:30.766Z,13.16
2023-04-17T06:58:58.154Z,13.42
2023-04-17T07:01:28.195Z,13.53
2023-04-17T07:03:55.700Z,13.41
2023-04-17T07:06:24.274Z,13.77
2023-04-17T07:08:53.495Z,13.84
2023-04-17T07:11:22.113Z,13.96
2023-04-17T07:13:49.317Z,14.07
2023-04-17T07:16:16.939Z,14.29
2023-04-17T07:18:44.259Z,14.48
2023-04-17T07:21:11.481Z,14.43
2023-04-17T07:23:39.038Z,14.55
2023-04-17T07:26:06.514Z,14.80
2023-04-17T07:28:34.253Z,14.88
2023-04-17T07:31:04.674Z,14.90
2023-04-17T07:33:32.013Z,15.08
2023-04-17T07:35:59.382Z,15.31
2023-04-17T07:38:27.072Z,15.41
2023-04-17T07:40:54.325Z,15.44
2023-04-17T07:43:21.634Z,15.60
2023-04-17T07:45:49.207Z,15.51
2023-04-17T07:48:19.751Z,15.59
2023-04-17T07:50:47.071Z,15.54
2023-04-17T07:53:14.654Z,15.40
2023-04-17T07:55:41.936Z,15.30
2023-04-17T07:58:11.345Z,15.43
2023-04-17T08:00:39.540Z,15.30
2023-04-17T08:03:08.006Z,15.54
2023-04-17T08:05:35.868Z,15.83
2023-04-17T08:08:04.716Z,15.65
2023-04-17T08:10:32.307Z,15.63
2023-04-17T08:13:00.489Z,15.51
2023-04-17T08:15:27.716Z,15.15
2023-04-17T08:17:57.011Z,15.40
2023-04-17T08:20:24.551Z,15.53
2023-04-17T08:22:52.073Z,15.52
2023-04-17T08:25:20.698Z,15.52
2023-04-17T08:27:48.053Z,15.48
2023-04-17T08:30:18.761Z,15.63
2023-04-17T08:32:47.991Z,15.81
2023-04-17T08:35:15.766Z,16.23
2023-04-17T08:37:46.769Z,16.13
2023-04-17T08:40:14.702Z,16.04
2023-04-17T08:42:42.201Z,16.11
2023-04-17T08:45:10.964Z,15.95
2023-04-17T08:47:38.976Z,15.88
2023-04-17T08:50:13.042Z,16.07
2023-04-17T08:52:42.559Z,15.91
2023-04-17T08:55:11.055Z,15.91
2023-04-17T08:57:56.776Z,16.12
2023-04-17T09:00:24.961Z,16.06
2023-04-17T09:02:54.345Z,15.99
2023-04-17T09:05:22.562Z,16.20
2023-04-17T09:07:51.886Z,16.50
2023-04-17T09:10:19.450Z,16.74
2023-04-17T09:12:58.526Z,16.90
2023-04-17T09:15:27.063Z,16.95
2023-04-17T09:17:54.571Z,17.00
2023-04-17T09:20:22.043Z,17.22
2023-04-17T09:22:49.691Z,16.77
2023-04-17T09:25:17.655Z,16.90
2023-04-17T09:27:45.676Z,16.70
2023-04-17T09:30:13.749Z,16.70
2023-04-17T09:32:41.542Z,16.92
2023-04-17T09:35:09.063Z,17.20
2023-04-17T09:37:55.457Z,17.15
2023-04-17T09:40:23.463Z,17.35
2023-04-17T09:43:01.288Z,17.41
2023-04-17T09:45:36.921Z,17.42
2023-04-17T09:48:08.305Z,17.42
2023-04-17T09:50:37.308Z,17.67
2023-04-17T09:53:07.569Z,17.95
2023-04-17T09:55:38.072Z,18.07
2023-04-17T09:58:06.357Z,18.17
2023-04-17T10:00:34.498Z,18.09
2023-04-17T10:03:02.580Z,17.91
2023-04-17T10:05:32.323Z,17.86
2023-04-17T10:08:00.603Z,17.96
2023-04-17T10:10:31.281Z,17.77
2023-04-17T10:13:00.413Z,17.87
2023-04-17T10:15:28.006Z,18.04
2023-04-17T10:17:58.469Z,18.38
2023-04-17T10:20:28.222Z,18.49
2023-04-17T10:22:56.408Z,18.44
2023-04-17T10:25:27.293Z,18.07
2023-04-17T10:28:03.308Z,17.84
2023-04-17T10:30:49.236Z,18.04
2023-04-17T10:33:20.060Z,18.00
2023-04-17T10:35:47.893Z,18.41
2023-04-17T10:38:16.318Z,18.58
2023-04-17T10:40:43.660Z,18.64
2023-04-17T10:43:14.501Z,18.60
2023-04-17T10:45:53.853Z,18.83
2023-04-17T10:48:42.368Z,18.71
2023-04-17T10:51:21.858Z,18.76
2023-04-17T10:53:49.884Z,18.78
2023-04-17T10:56:18.410Z,18.63
2023-04-17T10:59:02.190Z,18.71
2023-04-17T11:01:30.876Z,18.86
2023-04-17T11:03:59.831Z,18.81
2023-04-17T11:06:31.609Z,18.58
2023-04-17T11:08:59.682Z,18.40
2023-04-17T11:11:40.368Z,18.25
2023-04-17T11:14:15.003Z,18.00
2023-04-17T11:16:43.078Z,18.00
2023-04-17T11:19:11.926Z,18.12
2023-04-17T11:21:40.230Z,17.90
2023-04-17T11:24:07.493Z,18.10
2023-04-17T11:26:44.328Z,17.62
2023-04-17T11:29:18.516Z,17.81
2023-04-17T11:31:47.056Z,18.03
2023-04-17T11:34:16.004Z,18.26
2023-04-17T11:36:49.914Z,17.94
2023-04-17T11:39:18.088Z,17.93
2023-04-17T11:41:45.510Z,18.16
2023-04-17T11:44:13.081Z,18.37
2023-04-17T11:46:40.705Z,18.25
2023-04-17T11:49:07.978Z,18.22
2023-04-17T11:51:35.469Z,18.38
2023-04-17T11:54:03.160Z,18.08
2023-04-17T11:56:30.970Z,17.93
2023-04-17T11:58:58.797Z,17.99
2023-04-17T12:01:26.900Z,17.84
2023-04-17T12:03:58.031Z,17.90
2023-04-17T12:06:35.468Z,17.95
2023-04-17T12:09:03.035Z,17.92
2023-04-17T12:11:31.120Z,18.03
2023-04-17T12:13:59.076Z,18.25
2023-04-17T12:16:26.960Z,18.46
2023-04-17T12:18:54.525Z,18.45
2023-04-17T12:21:23.701Z,18.48
2023-04-17T12:23:51.413Z,18.38
2023-04-17T12:26:19.033Z,18.42
2023-04-17T12:28:46.299Z,18.57
2023-04-17T12:31:14.221Z,18.48
2023-04-17T12:33:42.397Z,18.76
2023-04-17T12:36:09.986Z,18.57
2023-04-17T12:38:37.666Z,18.36
2023-04-17T12:41:04.930Z,18.65
2023-04-17T12:43:33.113Z,18.87
2023-04-17T12:46:00.752Z,18.90
2023-04-17T12:48:28.264Z,18.75
2023-04-17T12:50:56.169Z,18.80
2023-04-17T12:53:23.798Z,18.59
2023-04-17T12:55:51.075Z,18.34
2023-04-17T12:58:18.453Z,18.42
2023-04-17T13:00:46.509Z,18.40
2023-04-17T13:03:13.957Z,18.36
2023-04-17T13:05:41.333Z,18.70
2023-04-17T13:08:15.023Z,18.86
2023-04-17T13:10:43.481Z,18.88
2023-04-17T13:13:11.722Z,19.21
2023-04-17T13:15:39.356Z,19.54
2023-04-17T13:18:06.757Z,19.52
2023-04-17T13:20:34.340Z,19.80
2023-04-17T13:23:01.628Z,19.88
2023-04-17T13:25:32.852Z,19.59
2023-04-17T13:28:01.453Z,19.72
2023-04-17T13:30:29.392Z,19.66
2023-04-17T13:32:57.442Z,19.61
2023-04-17T13:35:26.497Z,19.73
2023-04-17T13:37:54.896Z,19.69
2023-04-17T13:40:22.164Z,19.62
2023-04-17T13:42:49.767Z,19.64
2023-04-17T13:45:17.550Z,19.84
2023-04-17T13:47:46.094Z,19.68
2023-04-17T13:50:14.417Z,20.07
2023-04-17T13:52:42.350Z,20.42
2023-04-17T13:55:13.088Z,19.79
2023-04-17T13:57:42.463Z,19.69
2023-04-17T14:00:10.943Z,19.09
2023-04-17T14:02:39.561Z,18.72
2023-04-17T14:05:07.204Z,18.51
2023-04-17T14:07:35.566Z,17.98
2023-04-17T14:10:03.557Z,17.47
2023-04-17T14:12:31.418Z,17.08
2023-04-17T14:14:58.853Z,16.91
2023-04-17T14:17:26.504Z,16.43
2023-04-17T14:19:54.379Z,16.20
2023-04-17T14:22:21.668Z,16.05
2023-04-17T14:24:49.277Z,15.72
2023-04-17T14:27:16.575Z,15.44
2023-04-17T14:29:43.839Z,15.46
2023-04-17T14:32:11.433Z,15.48
2023-04-17T14:34:38.721Z,15.79
2023-04-17T14:37:06.071Z,15.75
2023-04-17T14:39:33.714Z,15.90
2023-04-17T14:42:02.370Z,15.96
2023-04-17T14:44:29.883Z,16.18
2023-04-17T14:46:57.454Z,16.24
2023-04-17T14:49:25.440Z,16.49
2023-04-17T14:51:52.670Z,16.37
2023-04-17T14:54:20.885Z,16.16
2023-04-17T14:56:48.128Z,16.11
2023-04-17T14:59:15.526Z,16.22
2023-04-17T15:01:43.075Z,16.31
2023-04-17T15:04:10.499Z,16.43
2023-04-17T15:06:39.214Z,16.45
2023-04-17T15:09:06.932Z,16.36
2023-04-17T15:11:34.431Z,16.29
2023-04-17T15:14:01.799Z,16.21
2023-04-17T15:16:30.052Z,16.24
2023-04-17T15:18:57.307Z,16.09
2023-04-17T15:21:24.591Z,15.94
2023-04-17T15:23:52.239Z,15.93
2023-04-17T15:26:19.479Z,16.00
2023-04-17T15:28:46.750Z,15.91
2023-04-17T15:31:14.344Z,15.88
2023-04-17T15:33:41.646Z,15.62
2023-04-17T15:36:08.910Z,15.61
2023-04-17T15:38:36.450Z,15.59
2023-04-17T15:41:03.739Z,15.66
2023-04-17T15:43:31.084Z,15.52
2023-04-17T15:46:00.236Z,15.53
2023-04-17T15:48:27.896Z,15.51
2023-04-17T15:50:55.408Z,15.53
2023-04-17T15:53:23.007Z,15.52
2023-04-17T15:55:50.261Z,15.49
2023-04-17T15:58:17.794Z,15.48
2023-04-17T16:00:45.306Z,15.44
2023-04-17T16:03:13.031Z,15.44
2023-04-17T16:05:40.360Z,15.37
2023-04-17T16:08:07.594Z,15.28
2023-04-17T16:10:35.242Z,15.23
2023-04-17T16:13:02.485Z,15.29
2023-04-17T16:15:30.112Z,15.20
2023-04-17T16:17:57.693Z,15.13
2023-04-17T16:20:25.006Z,15.13
2023-04-17T16:22:52.147Z,15.00
2023-04-17T16:25:20.906Z,14.97
2023-04-17T16:27:48.329Z,14.91
2023-04-17T16:30:15.624Z,14.95
2023-04-17T16:32:45.430Z,14.87
2023-04-17T16:35:12.966Z,14.91
2023-04-17T16:37:40.274Z,14.89
2023-04-17T16:40:08.089Z,14.76
2023-04-17T16:42:35.433Z,14.79
2023-04-17T16:45:02.813Z,14.77
2023-04-17T16:47:30.565Z,14.75
2023-04-17T16:49:57.858Z,14.72
2023-04-17T16:52:25.062Z,14.69
2023-04-17T16:54:52.623Z,14.65
2023-04-17T16:57:19.847Z,14.62
2023-04-17T16:59:47.100Z,14.58
2023-04-17T17:02:14.671Z,14.55
2023-04-17T17:04:41.962Z,14.60
2023-04-17T17:07:09.269Z,14.60
2023-04-17T17:09:36.839Z,14.55
2023-04-17T17:12:04.232Z,14.48
2023-04-17T17:14:31.451Z,14.46
2023-04-17T17:16:59.133Z,14.42
2023-04-17T17:19:27.221Z,14.38
2023-04-17T17:21:55.374Z,14.31
2023-04-17T17:24:22.902Z,14.28
2023-04-17T17:26:50.122Z,14.23
2023-04-17T17:29:17.436Z,14.10
2023-04-17T17:31:44.988Z,14.07
2023-04-17T17:34:25.065Z,14.02
2023-04-17T17:36:53.980Z,14.00
2023-04-17T17:39:22.205Z,13.89
2023-04-17T17:41:49.749Z,13.77
2023-04-17T17:44:17.575Z,13.75
2023-04-17T17:46:44.869Z,13.70
2023-04-17T17:49:12.095Z,13.62
2023-04-17T17:51:39.675Z,13.58
2023-04-17T17:54:07.894Z,13.54
2023-04-17T17:56:35.287Z,13.48
2023-04-17T17:59:02.857Z,13.44
2023-04-17T18:01:30.239Z,13.41
2023-04-17T18:03:57.998Z,13.33
2023-04-17T18:06:26.733Z,13.25
2023-04-17T18:08:54.125Z,13.29
2023-04-17T18:11:21.694Z,13.29
2023-04-17T18:13:48.975Z,13.31
2023-04-17T18:16:17.099Z,13.30
2023-04-17T18:18:44.763Z,13.32
2023-04-17T18:21:15.841Z,13.30
2023-04-17T18:23:43.553Z,13.37
2023-04-17T18:26:12.995Z,13.41
2023-04-17T18:28:40.369Z,13.40
2023-04-17T18:31:07.691Z,13.48
2023-04-17T18:33:36.095Z,13.49
2023-04-17T18:36:03.511Z,13.50
2023-04-17T18:38:31.097Z,13.53
2023-04-17T18:41:01.012Z,13.51
2023-04-17T18:43:28.432Z,13.49
2023-04-17T18:45:55.765Z,13.50
2023-04-17T18:48:23.617Z,13.53
2023-04-17T18:50:51.211Z,13.44
2023-04-17T18:53:18.524Z,13.37
2023-04-17T18:55:47.262Z,13.34
2023-04-17T18:58:14.501Z,13.34
2023-04-17T19:00:41.824Z,13.38
2023-04-17T19:03:10.217Z,13.37
2023-04-17T19:05:37.752Z,13.36
2023-04-17T19:08:05.174Z,13.36
2023-04-17T19:10:32.652Z,13.27
2023-04-17T19:12:59.928Z,13.30
2023-04-17T19:15:27.283Z,13.26
2023-04-17T19:17:54.899Z,13.17
2023-04-17T19:20:23.369Z,13.13
2023-04-17T19:22:50.815Z,13.15
2023-04-17T19:25:20.842Z,13.10
2023-04-17T19:27:48.069Z,13.04
2023-04-17T19:30:15.327Z,13.04
2023-04-17T19:32:44.967Z,13.05
2023-04-17T19:35:12.231Z,13.04
2023-04-17T19:37:39.506Z,13.07
2023-04-17T19:40:21.438Z,13.10
2023-04-17T19:42:51.314Z,13.15
2023-04-17T19:45:20.829Z,13.14
2023-04-17T19:47:54.883Z,13.15
2023-04-17T19:50:29.289Z,13.15
2023-04-17T19:52:57.265Z,13.24
2023-04-17T19:55:25.076Z,13.23
2023-04-17T19:57:52.366Z,13.34
2023-04-17T20:00:19.685Z,13.21
2023-04-17T20:02:47.841Z,13.17
2023-04-17T20:05:16.931Z,13.22
2023-04-17T20:07:44.142Z,13.12
2023-04-17T20:10:12.409Z,13.06
2023-04-17T20:12:39.661Z,13.07
2023-04-17T20:15:07.166Z,12.97
2023-04-17T20:17:34.741Z,12.99
2023-04-17T20:20:02.054Z,13.05
2023-04-17T20:22:29.397Z,13.04
2023-04-17T20:24:56.932Z,13.02
2023-04-17T20:27:24.266Z,13.04
2023-04-17T20:29:52.165Z,13.03
2023-04-17T20:32:20.365Z,13.02
2023-04-17T20:34:47.684Z,13.09
2023-04-17T20:37:14.940Z,13.11
2023-04-17T20:39:42.475Z,13.05
2023-04-17T20:42:09.704Z,13.03
2023-04-17T20:44:37.120Z,13.05
2023-04-17T20:47:04.720Z,13.05
2023-04-17T20:49:33.873Z,13.05
2023-04-17T20:52:03.008Z,13.08
2023-04-17T20:54:30.870Z,13.03
2023-04-17T20:56:58.111Z,13.14
2023-04-17T20:59:25.392Z,13.17
2023-04-17T21:01:53.078Z,13.17
2023-04-17T21:04:21.719Z,13.15
2023-04-17T21:06:50.051Z,13.10
2023-04-17T21:09:18.124Z,13.17
2023-04-17T21:11:45.844Z,13.14
2023-04-17T21:14:15.237Z,13.09
2023-04-17T21:16:45.210Z,13.17
2023-04-17T21:19:12.744Z,13.00
2023-04-17T21:21:40.594Z,12.90
2023-04-17T21:24:08.643Z,12.92
2023-04-17T21:26:35.936Z,12.90
2023-04-17T21:29:03.197Z,12.82
2023-04-17T21:31:30.863Z,12.74
2023-04-17T21:33:58.143Z,12.76
2023-04-17T21:36:25.493Z,12.88
2023-04-17T21:38:53.010Z,12.83
2023-04-17T21:41:20.221Z,12.88
2023-04-17T21:43:47.483Z,12.83
2023-04-17T21:46:15.603Z,12.84
2023-04-17T21:48:42.952Z,12.74
2023-04-17T21:51:10.214Z,12.71
2023-04-17T21:53:37.871Z,12.64
2023-04-17T21:56:07.013Z,12.64
2023-04-17T21:58:34.435Z,12.57
2023-04-17T22:01:02.491Z,12.59
2023-04-17T22:03:30.015Z,12.54
2023-04-17T22:05:57.384Z,12.47
2023-04-17T22:08:24.824Z,12.50
2023-04-17T22:10:52.733Z,12.42
2023-04-17T22:13:20.060Z,12.37
2023-04-17T22:15:47.752Z,12.35
2023-04-17T22:18:15.331Z,12.43
2023-04-17T22:20:42.675Z,12.40
2023-04-17T22:23:09.902Z,12.37
2023-04-17T22:25:37.462Z,12.29
2023-04-17T22:28:04.676Z,12.51
2023-04-17T22:30:31.918Z,12.58
2023-04-17T22:32:59.447Z,12.58
2023-04-17T22:35:26.924Z,12.60
2023-04-17T22:37:54.166Z,12.48
2023-04-17T22:40:21.733Z,12.45
2023-04-17T22:42:50.006Z,12.35
2023-04-17T22:45:17.516Z,12.39
2023-04-17T22:47:45.175Z,12.34
2023-04-17T22:50:14.263Z,12.22
2023-04-17T22:52:41.668Z,12.15
2023-04-17T22:55:09.785Z,12.18
2023-04-17T22:57:37.104Z,12.05
2023-04-17T23:00:07.535Z,12.12
2023-04-17T23:02:35.773Z,11.99
2023-04-17T23:05:03.375Z,12.01
2023-04-17T23:07:30.787Z,12.03
2023-04-17T23:09:58.512Z,11.94
2023-04-17T23:12:25.766Z,11.88
2023-04-17T23:14:53.039Z,11.85
2023-04-17T23:17:20.727Z,11.87
2023-04-17T23:19:48.139Z,11.90
2023-04-17T23:22:16.288Z,11.89
2023-04-17T23:24:43.841Z,11.98
2023-04-17T23:27:11.078Z,11.95
2023-04-17T23:29:38.293Z,11.86
2023-04-17T23:32:06.829Z,11.96
2023-04-17T23:34:34.335Z,11.93
2023-04-17T23:37:02.541Z,11.89
2023-04-17T23:39:30.271Z,11.93
2023-04-17T23:41:57.702Z,11.89
2023-04-17T23:44:24.955Z,11.85
2023-04-17T23:46:52.524Z,11.85
2023-04-17T23:49:19.818Z,11.84
2023-04-17T23:51:47.031Z,11.79
2023-04-17T23:54:15.298Z,11.92
2023-04-17T23:56:43.527Z,11.90
2023-04-17T23:59:10.957Z,11.85
